Time;durP1;ratioP1;P1;durP2;ratioP2;P2;SDS_P1;SDS_P2;PMS_P1;PMS_P2;Temp;Humidity;BMP_temperature;BMP_pressure;BME280_temperature;BME280_humidity;BME280_pressure;Samples;Min_cycle;Max_cycle;Signal;HPM_P1;HPM_P2
2022/07/04 00:00:37;;;;;;;5.33;4.20;;;20.60;73.30;;;;;;1844186;78;21038;-67
2022/07/04 00:03:06;;;;;;;7.03;4.60;;;20.60;72.90;;;;;;1844054;78;21034;-67
2022/07/04 00:05:36;;;;;;;6.95;3.92;;;20.50;73.40;;;;;;1844187;77;21049;-68
2022/07/04 00:08:05;;;;;;;6.10;4.20;;;20.40;73.00;;;;;;1844042;78;21054;-68
2022/07/04 00:10:34;;;;;;;7.00;4.17;;;20.20;73.60;;;;;;1843988;77;21034;-67
2022/07/04 00:13:04;;;;;;;4.90;3.87;;;20.20;74.10;;;;;;1844050;76;21135;-67
2022/07/04 00:15:33;;;;;;;6.33;4.25;;;20.10;74.60;;;;;;1844134;78;21031;-67
2022/07/04 00:18:03;;;;;;;6.97;3.90;;;20.20;74.50;;;;;;1844141;78;21005;-68
2022/07/04 00:20:32;;;;;;;6.37;4.35;;;20.20;74.20;;;;;;1844058;78;21033;-67
2022/07/04 00:23:01;;;;;;;4.62;3.92;;;20.20;74.20;;;;;;1843966;77;21484;-68
2022/07/04 00:25:30;;;;;;;8.58;3.55;;;20.20;74.40;;;;;;1844122;78;21046;-67
2022/07/04 00:28:00;;;;;;;5.95;4.55;;;20.20;74.10;;;;;;1844033;78;21487;-67
2022/07/04 00:30:29;;;;;;;5.80;3.85;;;20.20;74.00;;;;;;1844286;78;21034;-67
2022/07/04 00:32:59;;;;;;;6.92;3.92;;;20.20;73.80;;;;;;1844096;78;21104;-67
2022/07/04 00:35:28;;;;;;;7.45;4.03;;;20.10;73.80;;;;;;1844151;78;21104;-67
2022/07/04 00:37:57;;;;;;;5.05;3.85;;;20.00;74.00;;;;;;1844218;78;21018;-67
2022/07/04 00:40:27;;;;;;;8.75;3.65;;;19.90;74.10;;;;;;1844159;78;21030;-67
2022/07/04 00:42:58;;;;;;;4.03;3.60;;;19.90;74.40;;;;;;1844230;78;21034;-67
2022/07/04 00:45:28;;;;;;;5.92;4.08;;;20.00;74.60;;;;;;1844138;78;21116;-67
2022/07/04 00:47:57;;;;;;;5.53;4.12;;;20.00;74.40;;;;;;1844078;78;21132;-67
2022/07/04 00:50:27;;;;;;;4.92;3.98;;;20.10;74.60;;;;;;1844140;78;21025;-66
2022/07/04 00:52:56;;;;;;;4.22;3.65;;;20.10;74.60;;;;;;1844203;78;21038;-66
2022/07/04 00:55:26;;;;;;;5.65;5.08;;;20.10;74.70;;;;;;1844138;78;21042;-66
2022/07/04 00:57:55;;;;;;;7.58;4.53;;;20.10;74.80;;;;;;1844223;76;21027;-66
2022/07/04 01:00:25;;;;;;;4.97;3.95;;;20.00;74.60;;;;;;1844253;78;21091;-66
2022/07/04 01:02:54;;;;;;;8.55;4.03;;;20.00;75.00;;;;;;1844137;78;21034;-66
2022/07/04 01:05:24;;;;;;;7.80;3.95;;;20.00;75.40;;;;;;1844102;78;21095;-66
2022/07/04 01:07:53;;;;;;;5.85;4.20;;;20.00;75.30;;;;;;1844147;78;21034;-66
2022/07/04 01:10:22;;;;;;;6.25;3.60;;;20.00;75.30;;;;;;1844111;78;21054;-66
2022/07/04 01:12:52;;;;;;;7.35;3.90;;;20.00;75.30;;;;;;1844122;76;21495;-66
2022/07/04 01:15:21;;;;;;;5.08;4.12;;;20.00;75.60;;;;;;1844126;78;21192;-66
2022/07/04 01:17:50;;;;;;;4.83;3.90;;;20.10;75.70;;;;;;1844163;78;21511;-66
2022/07/04 01:20:22;;;;;;;5.83;4.20;;;20.10;75.50;;;;;;1844224;78;21033;-66
2022/07/04 01:22:50;;;;;;;4.70;4.15;;;20.10;75.30;;;;;;1844093;78;21049;-66
2022/07/04 01:25:20;;;;;;;5.05;3.67;;;20.10;75.20;;;;;;1844127;78;21131;-66
2022/07/04 01:27:49;;;;;;;6.10;4.83;;;20.10;75.20;;;;;;1843970;78;21029;-67
2022/07/04 01:30:19;;;;;;;6.15;3.92;;;20.10;75.20;;;;;;1844111;78;21030;-67
2022/07/04 01:32:48;;;;;;;7.92;4.03;;;20.00;74.90;;;;;;1843970;78;21088;-67
2022/07/04 01:35:18;;;;;;;5.22;3.75;;;20.00;75.20;;;;;;1844117;78;21122;-67
2022/07/04 01:37:47;;;;;;;6.03;4.20;;;19.90;75.20;;;;;;1844100;78;21100;-67
2022/07/04 01:40:17;;;;;;;7.25;3.95;;;19.80;75.30;;;;;;1844203;78;21033;-67
2022/07/04 01:42:46;;;;;;;6.65;4.05;;;19.80;75.90;;;;;;1844180;78;21103;-67
2022/07/04 01:45:15;;;;;;;6.62;4.72;;;19.80;76.20;;;;;;1844104;78;21141;-67
2022/07/04 01:47:45;;;;;;;4.80;4.30;;;19.80;75.80;;;;;;1844103;78;21009;-67
2022/07/04 01:50:14;;;;;;;5.05;4.28;;;19.80;76.10;;;;;;1844134;78;21140;-67
2022/07/04 01:52:43;;;;;;;4.95;4.12;;;19.80;76.30;;;;;;1844031;78;21041;-67
2022/07/04 01:55:13;;;;;;;4.28;3.65;;;19.80;76.00;;;;;;1844092;78;21480;-67
2022/07/04 01:57:42;;;;;;;6.03;3.90;;;19.80;76.20;;;;;;1844214;78;21014;-67
2022/07/04 02:03:00;;;;;;;6.90;4.25;;;19.70;75.60;;;;;;1844095;78;21128;-67
2022/07/04 02:05:29;;;;;;;8.55;4.28;;;19.70;75.50;;;;;;1844184;78;21037;-65
2022/07/04 02:07:59;;;;;;;11.65;4.67;;;19.60;75.30;;;;;;1844191;78;21038;-65
2022/07/04 02:10:28;;;;;;;8.80;4.47;;;19.40;75.40;;;;;;1844185;78;21497;-66
2022/07/04 02:13:04;;;;;;;5.90;4.75;;;19.30;75.50;;;;;;1847043;77;21071;-65
2022/07/04 02:15:41;;;;;;;7.83;4.17;;;19.20;76.20;;;;;;1859271;77;21051;-66
2022/07/04 02:18:11;;;;;;;5.35;4.00;;;19.20;76.70;;;;;;1859361;77;21015;-66
2022/07/04 02:20:41;;;;;;;4.62;4.00;;;19.20;76.80;;;;;;1859362;77;21121;-66
2022/07/04 02:23:10;;;;;;;8.65;4.75;;;19.30;77.20;;;;;;1859237;77;21043;-66
2022/07/04 02:25:39;;;;;;;8.38;4.20;;;19.30;77.10;;;;;;1859365;77;21015;-66
2022/07/04 02:28:09;;;;;;;7.90;4.28;;;19.40;77.20;;;;;;1859192;77;21047;-66
2022/07/04 02:30:38;;;;;;;5.35;3.87;;;19.50;76.80;;;;;;1859191;77;21015;-66
2022/07/04 02:33:07;;;;;;;9.80;4.67;;;19.60;76.70;;;;;;1859265;77;21098;-66
2022/07/04 02:35:37;;;;;;;6.10;4.92;;;19.70;76.30;;;;;;1859216;77;21050;-66
2022/07/04 02:38:06;;;;;;;6.87;4.20;;;19.70;75.60;;;;;;1859201;77;21004;-66
2022/07/04 02:40:36;;;;;;;4.95;3.85;;;19.60;75.60;;;;;;1859215;76;21028;-66
2022/07/04 02:43:05;;;;;;;7.05;4.28;;;19.60;76.10;;;;;;1859195;77;21015;-66
2022/07/04 02:45:34;;;;;;;6.08;4.12;;;19.50;76.10;;;;;;1859300;77;21113;-66
2022/07/04 02:48:04;;;;;;;6.35;4.15;;;19.60;76.30;;;;;;1859261;77;21093;-66
2022/07/04 02:50:33;;;;;;;9.43;4.17;;;19.60;76.40;;;;;;1859237;77;21051;-66
2022/07/04 02:53:03;;;;;;;4.35;3.95;;;19.80;76.10;;;;;;1859155;77;21039;-66
2022/07/04 02:55:32;;;;;;;6.37;4.28;;;19.80;75.70;;;;;;1859322;77;21112;-66
2022/07/04 02:58:01;;;;;;;9.38;4.33;;;19.80;75.90;;;;;;1859275;77;21136;-66
2022/07/04 03:00:31;;;;;;;4.45;3.83;;;19.80;76.10;;;;;;1859216;77;21011;-66
2022/07/04 03:03:00;;;;;;;8.93;4.33;;;19.90;76.30;;;;;;1859226;77;21114;-67
2022/07/04 03:05:32;;;;;;;5.12;3.80;;;20.00;76.10;;;;;;1859167;77;21035;-67
2022/07/04 03:08:00;;;;;;;8.05;4.12;;;20.00;75.90;;;;;;1859311;77;21050;-66
2022/07/04 03:10:30;;;;;;;5.00;3.58;;;20.10;75.90;;;;;;1859279;77;21042;-67
2022/07/04 03:12:59;;;;;;;9.30;4.17;;;20.20;75.90;;;;;;1859263;77;21116;-66
2022/07/04 03:15:29;;;;;;;7.22;4.30;;;20.30;75.70;;;;;;1859182;77;21074;-66
2022/07/04 03:17:58;;;;;;;4.97;3.80;;;20.50;75.50;;;;;;1859174;77;21101;-66
2022/07/04 03:20:28;;;;;;;7.55;3.35;;;20.60;75.00;;;;;;1859323;77;21031;-67
2022/07/04 03:22:57;;;;;;;6.42;3.85;;;20.70;74.70;;;;;;1859175;77;21101;-66
2022/07/04 03:25:27;;;;;;;9.15;4.22;;;20.80;74.80;;;;;;1859330;77;21070;-66
2022/07/04 03:27:56;;;;;;;4.92;4.28;;;20.80;74.40;;;;;;1859257;77;21046;-66
2022/07/04 03:30:26;;;;;;;7.42;4.25;;;20.90;74.10;;;;;;1859135;77;21101;-66
2022/07/04 03:32:55;;;;;;;5.28;4.00;;;20.90;74.00;;;;;;1859149;77;21051;-66
2022/07/04 03:35:25;;;;;;;11.80;4.72;;;20.90;73.80;;;;;;1859173;77;21039;-66
2022/07/04 03:37:54;;;;;;;8.38;3.95;;;20.80;73.90;;;;;;1859240;77;21089;-66
2022/07/04 03:40:24;;;;;;;6.30;4.20;;;20.90;74.10;;;;;;1859334;77;21124;-66
2022/07/04 03:42:53;;;;;;;9.38;4.30;;;20.90;74.10;;;;;;1859304;77;21022;-67
2022/07/04 03:45:23;;;;;;;9.55;3.72;;;21.00;73.90;;;;;;1859220;77;21165;-67
2022/07/04 03:47:53;;;;;;;6.10;3.80;;;21.10;73.90;;;;;;1859167;77;21148;-66
2022/07/04 03:50:22;;;;;;;5.40;4.22;;;21.20;73.80;;;;;;1859149;77;21086;-66
2022/07/04 03:52:52;;;;;;;8.88;3.87;;;21.40;73.70;;;;;;1859160;77;21038;-66
2022/07/04 03:55:21;;;;;;;8.90;3.75;;;21.50;73.40;;;;;;1859136;77;21035;-65
2022/07/04 03:57:51;;;;;;;5.67;4.20;;;21.60;72.90;;;;;;1859215;77;21055;-65
2022/07/04 04:00:20;;;;;;;14.23;4.58;;;21.70;72.70;;;;;;1859249;77;21052;-66
2022/07/04 04:02:50;;;;;;;7.62;4.30;;;21.80;72.50;;;;;;1859369;77;21465;-65
2022/07/04 04:05:30;;;;;;;10.32;5.97;;;21.80;72.00;;;;;;1859380;77;21175;-66
2022/07/04 04:08:00;;;;;;;14.93;5.87;;;21.90;71.70;;;;;;1859263;77;21055;-65
2022/07/04 04:10:31;;;;;;;9.30;6.60;;;21.90;71.60;;;;;;1859390;77;21039;-65
2022/07/04 04:13:01;;;;;;;17.17;9.23;;;22.00;71.80;;;;;;1859161;77;21093;-65
2022/07/04 04:15:30;;;;;;;10.13;7.65;;;22.10;71.90;;;;;;1859120;76;21126;-65
2022/07/04 04:18:00;;;;;;;15.25;8.25;;;22.20;71.80;;;;;;1859250;77;21039;-65
2022/07/04 04:20:29;;;;;;;8.58;7.47;;;22.40;71.60;;;;;;1859210;77;21093;-65
2022/07/04 04:22:58;;;;;;;13.48;6.85;;;22.50;71.20;;;;;;1859164;77;21031;-65
2022/07/04 04:25:28;;;;;;;7.60;5.45;;;22.60;70.90;;;;;;1859190;77;21035;-65
2022/07/04 04:27:57;;;;;;;14.45;9.63;;;22.70;70.80;;;;;;1859274;77;21039;-65
2022/07/04 04:30:27;;;;;;;9.48;5.12;;;22.90;71.00;;;;;;1859219;77;21058;-65
2022/07/04 04:32:56;;;;;;;10.40;4.70;;;23.00;70.90;;;;;;1859249;77;21039;-65
2022/07/04 04:35:26;;;;;;;12.05;5.08;;;23.10;70.90;;;;;;1859242;76;21039;-66
2022/07/04 04:37:55;;;;;;;8.88;5.30;;;23.30;70.80;;;;;;1859350;77;21104;-66
2022/07/04 04:40:25;;;;;;;9.05;4.80;;;23.50;70.30;;;;;;1859398;77;21043;-65
2022/07/04 04:42:54;;;;;;;9.48;5.25;;;23.60;69.90;;;;;;1859361;77;21035;-66
2022/07/04 04:45:23;;;;;;;9.08;5.22;;;23.70;69.70;;;;;;1859368;77;21168;-66
2022/07/04 04:47:53;;;;;;;9.45;5.62;;;23.80;69.60;;;;;;1859147;77;21159;-67
2022/07/04 04:50:27;;;;;;;9.03;5.58;;;23.80;69.20;;;;;;1859128;77;21031;-67
2022/07/04 04:53:15;;;;;;;8.58;4.65;;;23.90;69.20;;;;;;1788210;79;21657;-66
2022/07/04 04:55:45;;;;;;;12.33;5.47;;;24.10;68.80;;;;;;1828813;78;21009;-66
2022/07/04 04:58:14;;;;;;;6.33;3.50;;;24.10;68.70;;;;;;1828778;78;21156;-66
2022/07/04 05:00:44;;;;;;;7.10;4.58;;;24.30;68.40;;;;;;1828926;78;21041;-67
2022/07/04 05:03:13;;;;;;;11.97;4.12;;;24.30;67.70;;;;;;1828760;78;21491;-65
2022/07/04 05:05:42;;;;;;;6.28;3.90;;;24.40;67.30;;;;;;1828928;77;21040;-65
2022/07/04 05:08:13;;;;;;;8.68;4.30;;;24.50;66.70;;;;;;1828888;78;21032;-65
2022/07/04 05:10:42;;;;;;;7.92;3.92;;;24.50;66.20;;;;;;1828733;78;21107;-66
2022/07/04 05:13:12;;;;;;;10.48;3.58;;;24.60;66.00;;;;;;1828833;77;21036;-65
2022/07/04 05:15:41;;;;;;;12.45;3.30;;;24.60;65.20;;;;;;1828869;78;21036;-65
2022/07/04 05:18:11;;;;;;;4.50;2.70;;;24.70;64.60;;;;;;1828760;77;21048;-65
2022/07/04 05:20:40;;;;;;;3.00;2.55;;;24.80;62.20;;;;;;1828909;78;21040;-65
2022/07/04 05:23:09;;;;;;;5.25;2.62;;;24.90;60.90;;;;;;1828723;77;21052;-65
2022/07/04 05:25:38;;;;;;;5.08;2.83;;;25.00;61.10;;;;;;1828821;78;21040;-65
2022/07/04 05:28:08;;;;;;;5.97;3.22;;;25.00;61.20;;;;;;1828712;77;21103;-65
2022/07/04 05:30:37;;;;;;;5.83;3.35;;;25.10;61.00;;;;;;1828804;78;21041;-65
2022/07/04 05:33:06;;;;;;;7.85;3.15;;;25.20;61.30;;;;;;1828800;78;21064;-65
2022/07/04 05:35:36;;;;;;;9.18;4.20;;;25.30;60.80;;;;;;1828755;78;21099;-65
2022/07/04 05:38:05;;;;;;;6.08;3.30;;;25.50;60.70;;;;;;1828761;78;21032;-66
2022/07/04 05:40:34;;;;;;;12.70;4.12;;;25.60;59.90;;;;;;1828795;78;21052;-65
2022/07/04 05:43:03;;;;;;;7.70;3.87;;;25.70;59.60;;;;;;1828717;78;21064;-66
2022/07/04 05:45:32;;;;;;;6.97;3.00;;;25.80;59.20;;;;;;1828729;77;21036;-65
2022/07/04 05:48:02;;;;;;;9.03;3.60;;;25.90;58.60;;;;;;1828798;78;21549;-65
2022/07/04 05:50:31;;;;;;;7.25;4.30;;;26.10;59.00;;;;;;1828694;78;21122;-65
2022/07/04 05:53:01;;;;;;;13.55;3.72;;;26.20;57.40;;;;;;1820430;77;21060;-65
2022/07/04 05:55:30;;;;;;;6.83;3.75;;;26.30;56.80;;;;;;1817246;77;21095;-65
2022/07/04 05:58:00;;;;;;;7.03;3.77;;;26.40;56.20;;;;;;1817246;78;21049;-66
2022/07/04 06:00:29;;;;;;;9.48;4.03;;;26.40;56.10;;;;;;1817213;77;21115;-65
2022/07/04 06:02:58;;;;;;;10.15;6.60;;;26.60;55.90;;;;;;1817244;79;21087;-66
2022/07/04 06:05:28;;;;;;;23.27;5.83;;;26.70;55.10;;;;;;1817276;79;21049;-65
2022/07/04 06:07:57;;;;;;;8.40;4.10;;;26.70;54.80;;;;;;1817343;79;21068;-65
2022/07/04 06:10:26;;;;;;;13.20;4.15;;;26.80;53.50;;;;;;1817364;79;21577;-65
2022/07/04 06:12:56;;;;;;;8.55;3.40;;;26.80;53.40;;;;;;1817236;78;21174;-65
2022/07/04 06:15:26;;;;;;;13.03;4.12;;;26.90;53.60;;;;;;1817223;79;21048;-65
2022/07/04 06:17:56;;;;;;;6.55;3.70;;;27.00;53.70;;;;;;1817189;79;21049;-65
2022/07/04 06:20:25;;;;;;;8.60;3.52;;;27.00;52.70;;;;;;1817274;79;21013;-65
2022/07/04 06:22:54;;;;;;;10.13;4.85;;;27.10;52.90;;;;;;1817440;79;21107;-65
2022/07/04 06:25:24;;;;;;;15.43;4.42;;;27.10;52.50;;;;;;1817469;79;21017;-66
2022/07/04 06:27:54;;;;;;;8.28;3.90;;;27.20;51.90;;;;;;1817272;79;21040;-67
2022/07/04 06:30:23;;;;;;;6.95;3.85;;;27.20;51.30;;;;;;1817376;79;21106;-66
2022/07/04 06:32:54;;;;;;;7.28;3.80;;;27.30;50.70;;;;;;1817446;77;21041;-67
2022/07/04 06:38:21;;;;;;;8.60;3.62;;;27.30;51.00;;;;;;1817343;78;21155;-67
2022/07/04 06:40:53;;;;;;;11.38;4.72;;;27.40;51.50;;;;;;1817390;79;21049;-67
2022/07/04 06:43:23;;;;;;;9.85;4.17;;;27.50;51.10;;;;;;1817521;79;21108;-67
2022/07/04 06:45:52;;;;;;;14.15;5.83;;;27.50;50.20;;;;;;1817422;78;21045;-66
2022/07/04 06:48:21;;;;;;;8.00;5.70;;;27.60;50.00;;;;;;1817409;79;21036;-66
2022/07/04 06:50:51;;;;;;;10.30;5.78;;;27.70;50.10;;;;;;1817422;77;21107;-67
2022/07/04 06:53:20;;;;;;;12.20;5.28;;;27.80;49.80;;;;;;1817239;77;21131;-67
2022/07/04 06:55:50;;;;;;;9.60;5.20;;;27.90;49.80;;;;;;1817340;79;21548;-67
2022/07/04 06:58:19;;;;;;;12.50;5.03;;;28.00;49.80;;;;;;1817407;77;21127;-67
2022/07/04 07:00:48;;;;;;;11.65;6.25;;;28.00;49.40;;;;;;1817374;78;21044;-67
2022/07/04 07:03:18;;;;;;;12.10;5.78;;;28.00;49.00;;;;;;1817310;77;21045;-67
2022/07/04 07:05:47;;;;;;;8.70;5.22;;;28.00;49.30;;;;;;1817273;79;21154;-67
2022/07/04 07:08:17;;;;;;;11.88;6.12;;;28.10;48.80;;;;;;1817393;78;21158;-67
2022/07/04 07:10:46;;;;;;;8.93;4.05;;;28.10;48.60;;;;;;1817330;79;21510;-67
2022/07/04 07:13:16;;;;;;;9.48;3.77;;;28.10;48.50;;;;;;1817333;79;21041;-67
2022/07/04 07:15:45;;;;;;;7.55;4.20;;;28.10;48.20;;;;;;1817312;79;21029;-67
2022/07/04 07:18:16;;;;;;;11.97;4.85;;;28.20;48.20;;;;;;1817423;77;21045;-67
2022/07/04 07:20:45;;;;;;;12.50;5.30;;;28.30;47.60;;;;;;1817334;77;21044;-67
2022/07/04 07:23:15;;;;;;;17.85;6.67;;;28.40;47.00;;;;;;1817345;77;21060;-67
2022/07/04 07:25:44;;;;;;;12.55;5.70;;;28.40;46.70;;;;;;1817409;77;21467;-68
2022/07/04 07:28:14;;;;;;;10.55;4.90;;;28.50;46.40;;;;;;1817352;77;21033;-67
2022/07/04 07:30:43;;;;;;;12.68;6.33;;;28.60;46.20;;;;;;1817348;78;21095;-67
2022/07/04 07:33:12;;;;;;;14.70;6.40;;;28.70;46.50;;;;;;1817337;79;21037;-68
2022/07/04 07:35:47;;;;;;;22.48;6.50;;;28.70;46.80;;;;;;1817379;79;21440;-66
2022/07/04 07:38:35;;;;;;;11.75;6.53;;;28.80;46.90;;;;;;1916615;74;21205;-66
2022/07/04 07:41:06;;;;;;;13.40;5.92;;;28.90;46.20;;;;;;1916757;75;21030;-66
2022/07/04 07:43:36;;;;;;;11.33;5.70;;;28.90;46.50;;;;;;1916838;75;21145;-66
2022/07/04 07:46:08;;;;;;;19.25;6.75;;;28.90;46.60;;;;;;1916863;75;21086;-66
2022/07/04 07:48:38;;;;;;;10.80;6.15;;;28.90;46.40;;;;;;1916772;75;21027;-66
2022/07/04 07:51:07;;;;;;;10.72;5.05;;;28.90;45.20;;;;;;1916567;75;21035;-66
2022/07/04 07:53:37;;;;;;;7.62;4.95;;;29.00;44.30;;;;;;1916559;75;21030;-66
2022/07/04 07:56:06;;;;;;;19.50;6.35;;;29.00;43.70;;;;;;1916440;75;21007;-67
2022/07/04 07:58:36;;;;;;;11.20;6.05;;;29.00;43.10;;;;;;1916664;74;21066;-67
2022/07/04 08:01:05;;;;;;;7.12;3.80;;;29.00;43.40;;;;;;1916477;75;21148;-66
2022/07/04 08:06:22;;;;;;;6.60;3.72;;;29.10;42.30;;;;;;1916727;75;21039;-66
2022/07/04 08:08:52;;;;;;;15.63;4.67;;;29.10;41.50;;;;;;1916599;75;21031;-66
2022/07/04 08:11:21;;;;;;;10.50;4.17;;;29.10;41.50;;;;;;1916503;74;21007;-66
2022/07/04 08:13:51;;;;;;;9.60;4.17;;;29.10;41.40;;;;;;1916690;75;21093;-66
2022/07/04 08:16:20;;;;;;;7.08;3.83;;;29.20;41.40;;;;;;1916685;75;21030;-66
2022/07/04 08:18:49;;;;;;;8.20;3.52;;;29.20;41.00;;;;;;1916683;75;21112;-66
2022/07/04 08:21:19;;;;;;;6.83;4.45;;;29.30;41.70;;;;;;1856094;77;21104;-66
2022/07/04 08:23:48;;;;;;;5.92;4.40;;;29.30;41.30;;;;;;1846944;78;21037;-66
2022/07/04 08:26:17;;;;;;;9.28;4.50;;;29.30;41.20;;;;;;1856212;77;21035;-66
2022/07/04 08:28:47;;;;;;;6.37;3.87;;;29.40;41.50;;;;;;1846965;78;21033;-66
2022/07/04 08:31:16;;;;;;;8.38;4.42;;;29.50;41.90;;;;;;1856119;76;21031;-66
2022/07/04 08:36:36;;;;;;;15.18;5.08;;;29.30;41.10;;;;;;1820995;79;21092;-66
2022/07/04 08:39:05;;;;;;;5.55;4.25;;;29.20;42.10;;;;;;1821032;79;21049;-66
2022/07/04 08:41:40;;;;;;;5.22;3.35;;;29.20;42.30;;;;;;1820050;79;21104;-67
2022/07/04 08:44:11;;;;;;;8.25;4.83;;;29.20;43.40;;;;;;1820500;79;21092;-66
2022/07/04 08:46:42;;;;;;;7.10;4.55;;;29.20;42.50;;;;;;1820548;79;21033;-62
2022/07/04 08:49:20;;;;;;;6.55;4.15;;;29.20;42.70;;;;;;1820274;79;21069;-61
2022/07/04 08:52:01;;;;;;;6.45;4.65;;;29.30;42.00;;;;;;1820437;77;21124;-65
2022/07/04 09:00:08;;;;;;;6.33;4.25;;;29.60;41.50;;;;;;1820538;79;21057;-67
2022/07/04 09:02:38;;;;;;;12.47;4.67;;;29.60;41.20;;;;;;1820521;79;21092;-62
2022/07/04 09:05:09;;;;;;;13.93;5.42;;;29.70;41.30;;;;;;1820377;79;21041;-65
2022/07/04 09:07:39;;;;;;;10.43;4.85;;;29.70;41.70;;;;;;1833144;78;21180;-61
2022/07/04 09:10:09;;;;;;;13.62;5.87;;;29.90;41.20;;;;;;1842676;78;21051;-61
2022/07/04 09:12:38;;;;;;;15.48;5.80;;;29.90;41.50;;;;;;1842785;77;21039;-64
2022/07/04 09:15:08;;;;;;;7.90;4.62;;;30.10;41.50;;;;;;1843090;77;21478;-65
2022/07/04 09:17:38;;;;;;;8.25;5.22;;;30.20;40.80;;;;;;1842863;77;21047;-62
2022/07/04 09:20:19;;;;;;;10.98;4.47;;;30.30;40.40;;;;;;1842960;77;21065;-60
2022/07/04 09:22:50;;;;;;;9.33;4.47;;;30.20;40.60;;;;;;1842287;77;21137;-62
2022/07/04 09:25:21;;;;;;;6.58;4.50;;;30.30;39.60;;;;;;1842962;77;21122;-61
2022/07/04 09:27:52;;;;;;;12.05;4.42;;;30.20;39.30;;;;;;1842858;77;21039;-64
2022/07/04 09:30:27;;;;;;;9.58;4.75;;;30.20;39.70;;;;;;1842837;77;21035;-69
2022/07/04 09:33:02;;;;;;;6.08;4.12;;;30.10;39.90;;;;;;1843093;78;21043;-63
2022/07/04 09:35:33;;;;;;;9.58;7.28;;;30.20;39.30;;;;;;1839029;77;21084;-63
2022/07/04 09:38:07;;;;;;;10.15;6.22;;;30.20;39.80;;;;;;1831309;78;21039;-59
2022/07/04 09:43:27;;;;;;;11.55;6.62;;;30.30;38.10;;;;;;1831489;77;21099;-61
2022/07/04 09:45:57;;;;;;;10.13;5.97;;;30.30;37.70;;;;;;1831475;78;21075;-61
2022/07/04 09:48:28;;;;;;;9.03;4.97;;;30.40;37.50;;;;;;1831409;78;21040;-60
2022/07/04 09:50:57;;;;;;;7.75;5.08;;;30.40;37.50;;;;;;1831634;77;21470;-62
2022/07/04 09:53:29;;;;;;;10.00;6.05;;;30.30;38.40;;;;;;1831417;78;21106;-61
2022/07/04 09:55:59;;;;;;;11.70;5.40;;;30.30;37.90;;;;;;1831207;77;21169;-65
2022/07/04 09:58:29;;;;;;;12.58;5.92;;;30.30;37.70;;;;;;1831531;78;21040;-59
2022/07/04 10:01:02;;;;;;;6.67;5.00;;;30.40;38.00;;;;;;1831490;78;21083;-61
2022/07/04 10:03:34;;;;;;;9.08;5.28;;;30.40;37.60;;;;;;1831460;78;21075;-62
2022/07/04 10:06:16;;;;;;;7.15;5.05;;;30.40;37.70;;;;;;1831549;78;21055;-59
2022/07/04 10:08:46;;;;;;;7.67;4.70;;;30.40;37.30;;;;;;1831480;77;21403;-62
2022/07/04 10:11:15;;;;;;;9.53;4.15;;;30.50;37.50;;;;;;1831499;78;21059;-60
2022/07/04 10:13:45;;;;;;;5.28;3.95;;;30.60;37.60;;;;;;1831447;77;21099;-59
2022/07/04 10:16:17;;;;;;;9.85;4.58;;;30.60;38.30;;;;;;1831379;78;21090;-61
2022/07/04 10:18:47;;;;;;;7.00;4.15;;;30.60;38.20;;;;;;1830870;77;21149;-61
2022/07/04 10:21:18;;;;;;;7.40;3.95;;;30.60;38.20;;;;;;1831350;78;21204;-61
2022/07/04 10:23:48;;;;;;;12.45;4.62;;;30.60;38.30;;;;;;1831530;78;21040;-58
2022/07/04 10:26:22;;;;;;;6.25;4.20;;;30.60;38.50;;;;;;1831420;78;21122;-59
2022/07/04 10:28:53;;;;;;;11.05;4.85;;;30.60;38.40;;;;;;1831652;77;21083;-63
2022/07/04 10:31:25;;;;;;;7.60;4.53;;;30.60;38.10;;;;;;1831667;77;21154;-59
2022/07/04 10:33:56;;;;;;;7.03;4.20;;;30.60;38.40;;;;;;1831493;78;21099;-58
2022/07/04 10:36:31;;;;;;;21.27;4.87;;;30.60;38.50;;;;;;1831491;78;21075;-60
2022/07/04 10:39:00;;;;;;;;;;;30.60;37.90;;;;;;1834323;77;21012;-58
2022/07/04 10:41:30;;;;;;;8.18;5.45;;;30.60;37.90;;;;;;1831401;78;20151;-59
2022/07/04 10:44:02;;;;;;;10.20;5.05;;;30.70;38.30;;;;;;1831362;77;21032;-59
2022/07/04 10:46:33;;;;;;;6.25;4.25;;;30.80;38.10;;;;;;1831465;78;21032;-60
2022/07/04 10:49:20;;;;;;;7.03;4.35;;;30.90;37.90;;;;;;1831620;77;21043;-60
2022/07/04 10:52:10;;;;;;;5.72;4.03;;;30.90;38.50;;;;;;1831451;77;21004;-60
2022/07/04 10:54:41;;;;;;;9.13;3.95;;;31.10;38.40;;;;;;1831484;77;21147;-60
2022/07/04 10:57:21;;;;;;;10.08;4.83;;;31.10;37.90;;;;;;1831390;78;21020;-61
2022/07/04 11:00:00;;;;;;;7.08;4.28;;;31.00;38.30;;;;;;1831558;78;21067;-62
2022/07/04 11:02:31;;;;;;;10.82;4.30;;;30.90;38.30;;;;;;1831300;77;21486;-59
2022/07/04 11:05:08;;;;;;;6.67;4.12;;;30.90;38.20;;;;;;1831334;78;21584;-61
2022/07/04 11:07:42;;;;;;;16.70;4.95;;;30.90;38.20;;;;;;1831538;78;21083;-60
2022/07/04 11:12:58;;;;;;;5.40;3.90;;;30.90;38.20;;;;;;1831357;78;21091;-59
2022/07/04 11:15:30;;;;;;;6.60;4.03;;;30.90;38.20;;;;;;1831594;77;21117;-63
2022/07/04 11:18:10;;;;;;;13.40;4.35;;;31.00;38.30;;;;;;1831534;77;21548;-62
2022/07/04 11:20:45;;;;;;;6.83;3.77;;;31.20;38.40;;;;;;1831400;77;21149;-59
2022/07/04 11:23:16;;;;;;;7.70;4.37;;;31.40;38.30;;;;;;1831337;78;21043;-60
2022/07/04 11:25:48;;;;;;;10.72;4.08;;;31.50;38.20;;;;;;1831392;77;21075;-61
2022/07/04 11:28:25;;;;;;;5.28;3.83;;;31.60;38.20;;;;;;1831508;78;21087;-61
2022/07/04 11:31:00;;;;;;;5.62;4.00;;;31.60;37.20;;;;;;1831309;77;21525;-58
2022/07/04 11:33:31;;;;;;;13.10;4.25;;;31.40;37.20;;;;;;1831492;78;21607;-62
2022/07/04 11:36:14;;;;;;;7.30;3.85;;;31.40;36.80;;;;;;1831739;77;21161;-61
2022/07/04 11:38:48;;;;;;;7.33;3.70;;;31.30;37.10;;;;;;1840215;78;21107;-64
2022/07/04 11:47:06;;;;;;;5.12;3.90;;;31.30;37.40;;;;;;1840142;78;21454;-64
2022/07/04 11:49:35;;;;;;;5.95;4.12;;;31.20;37.50;;;;;;1840023;77;21494;-66
2022/07/04 11:52:05;;;;;;;15.60;5.17;;;31.30;37.60;;;;;;1840208;78;21027;-65
2022/07/04 11:54:34;;;;;;;7.30;4.40;;;31.30;38.30;;;;;;1840302;77;21046;-66
2022/07/04 11:57:21;;;;;;;8.00;5.50;;;31.40;38.30;;;;;;1840196;78;21060;-63
2022/07/04 11:59:59;;;;;;;8.73;4.62;;;31.50;38.30;;;;;;1840186;78;21126;-64
2022/07/04 12:02:30;;;;;;;6.10;3.80;;;31.50;38.70;;;;;;1840301;78;21092;-63
2022/07/04 12:05:00;;;;;;;7.90;4.55;;;31.40;38.10;;;;;;1840351;78;21059;-63
2022/07/04 12:07:32;;;;;;;8.33;4.08;;;31.40;38.20;;;;;;1840059;78;21048;-63
2022/07/04 12:10:25;;;;;;;6.70;4.20;;;31.40;37.30;;;;;;1840487;78;21338;-64
2022/07/04 12:13:13;;;;;;;6.03;3.90;;;31.40;37.60;;;;;;1840535;78;21270;-63
2022/07/04 12:15:44;;;;;;;6.62;4.40;;;31.40;37.80;;;;;;1840184;78;21415;-63
2022/07/04 12:18:21;;;;;;;7.20;4.58;;;31.30;37.80;;;;;;1840442;78;21044;-63
2022/07/04 12:20:52;;;;;;;6.75;4.55;;;31.30;38.40;;;;;;1840273;77;21166;-62
2022/07/04 12:23:25;;;;;;;7.50;4.65;;;31.30;38.60;;;;;;1840200;77;21063;-64
2022/07/04 12:25:54;;;;;;;8.05;4.20;;;31.40;39.20;;;;;;1840245;77;21102;-57
2022/07/04 12:28:24;;;;;;;7.67;4.22;;;31.40;38.50;;;;;;1840033;78;21094;-61
2022/07/04 12:30:56;;;;;;;5.90;4.00;;;31.50;38.40;;;;;;1840172;77;21042;-58
2022/07/04 12:33:28;;;;;;;7.80;4.72;;;31.50;38.50;;;;;;1840241;78;21047;-58
2022/07/04 12:36:06;;;;;;;7.80;4.08;;;31.60;38.00;;;;;;1840151;78;21095;-58
2022/07/04 12:38:37;;;;;;;10.20;4.10;;;31.60;37.10;;;;;;1840334;77;21048;-57
2022/07/04 12:41:12;;;;;;;7.80;3.92;;;31.70;37.00;;;;;;1840269;78;21023;-57
2022/07/04 12:43:44;;;;;;;7.53;3.92;;;31.70;37.20;;;;;;1840045;78;21091;-58
2022/07/04 12:46:16;;;;;;;7.50;4.25;;;31.70;37.30;;;;;;1840216;78;21094;-58
2022/07/04 12:48:48;;;;;;;6.22;4.33;;;31.70;37.20;;;;;;1840460;77;21182;-58
2022/07/04 12:51:28;;;;;;;6.45;3.80;;;31.70;36.90;;;;;;1840217;77;21153;-58
2022/07/04 12:54:21;;;;;;;5.95;4.35;;;31.70;37.10;;;;;;1840340;77;21553;-58
2022/07/04 12:56:50;;;;;;;5.92;4.28;;;31.60;37.10;;;;;;1858916;76;21141;-60
2022/07/04 12:59:20;;;;;;;5.92;3.77;;;31.60;37.40;;;;;;1858565;77;21118;-59
2022/07/04 13:01:49;;;;;;;6.75;4.03;;;31.50;37.30;;;;;;1858804;77;21095;-59
2022/07/04 13:04:19;;;;;;;5.87;4.20;;;31.60;37.40;;;;;;1858900;77;21148;-58
2022/07/04 13:06:48;;;;;;;14.45;5.00;;;31.60;37.60;;;;;;1858781;77;21083;-57
2022/07/04 13:09:17;;;;;;;7.05;4.58;;;31.70;38.50;;;;;;1858868;77;21015;-58
2022/07/04 13:14:34;;;;;;;7.62;4.17;;;31.80;39.00;;;;;;1858583;77;21443;-60
2022/07/04 13:17:03;;;;;;;8.60;4.92;;;31.80;40.00;;;;;;1858925;76;21008;-60
2022/07/04 13:19:32;;;;;;;7.28;5.10;;;31.80;41.70;;;;;;1858591;76;21031;-61
2022/07/04 13:22:04;;;;;;;6.53;4.65;;;31.70;42.30;;;;;;1858650;77;21066;-59
2022/07/04 13:24:35;;;;;;;6.85;4.92;;;31.60;42.60;;;;;;1857440;76;21072;-60
2022/07/04 13:27:04;;;;;;;10.93;5.12;;;31.50;42.40;;;;;;1858815;77;21015;-58
2022/07/04 13:29:34;;;;;;;14.65;5.42;;;31.50;42.60;;;;;;1858552;76;21562;-58
2022/07/04 13:32:05;;;;;;;7.05;5.00;;;31.50;43.30;;;;;;1858868;76;21055;-58
2022/07/04 13:34:35;;;;;;;6.50;4.53;;;31.40;44.00;;;;;;1858817;77;21137;-58